Ufo 3 — IUNV — position and weather

sailwx.info

Track history (hours):
 
Tides and Currents Weather Stations Pressure Air Temp Water Temp Dewpoint Dewpoint Depression Visibility Wind Speed Wind Dir Waves Ship Positions

Ufo 3

Last reported at 2015-May-23 17:26 UTC. Time now 2015-May-24 03:14 UTC.
Position N 44°03' E 009°51'.

Length 28 m.

Type: Passenger vessel. MMSI: 247031600.

Date/timePositionNaut miles runAvg speedWind from/ knotsBaromVisibWave heightAir tempDewpointWater temp
2015-May-23 17:26N 44°03' E 009°51'1110.9
2015-May-23 16:23N 44°09' E 009°37'6 5.9
2015-May-23 15:25N 44°06' E 009°44'5 6.1
2015-May-23 14:33N 44°03' E 009°50'2 2.4
2015-May-23 13:33N 44°04' E 009°47'7 3.4
2015-May-23 11:25N 44°09' E 009°39'4 4.6
2015-May-23 10:27N 44°06' E 009°44'8 8.7
2015-May-23 09:33N 44°04' E 009°55'3 3.4
2015-May-23 08:33N 44°03' E 009°50'0 0.0
2015-May-23 07:33N 44°03' E 009°50'0 0.4
2015-May-23 06:33N 44°03' E 009°51'0 0.0
2015-May-22 15:24N 44°03' E 009°51'10 7.7
2015-May-22 14:06N 44°09' E 009°39'0 0.0
2015-May-22 13:11N 44°09' E 009°39'4 4.8
2015-May-22 12:17N 44°06' E 009°44'4 4.7
2015-May-22 11:23N 44°09' E 009°39'0 0.1
2015-May-22 10:26N 44°09' E 009°39'4 4.3
2015-May-22 09:31N 44°06' E 009°43'0 0.5
2015-May-22 08:31N 44°06' E 009°44'0 0.1
2015-May-22 07:19N 44°06' E 009°44'6 0.1
2015-May-20 07:33N 44°03' E 009°51'0 0.0
2015-May-19 16:20N 44°03' E 009°51'10 5.2
2015-May-19 14:23N 44°09' E 009°39'3 2.2
2015-May-19 13:04N 44°07' E 009°42'2 2.9
2015-May-19 12:32N 44°06' E 009°44'5 5.4
2015-May-19 11:34N 44°03' E 009°50'0 0.0
2015-May-19 10:33N 44°03' E 009°50'10 4.5
2015-May-19 08:26N 44°08' E 009°39'4 4.7
2015-May-19 07:33N 44°05' E 009°43'6 5.7
2015-May-19 06:33N 44°03' E 009°50'0 0.4
2015-May-19 05:33N 44°03' E 009°51'10 0.7
2015-May-18 14:32N 44°09' E 009°39'4 4.4
2015-May-18 13:31N 44°06' E 009°44'5 5.5
2015-May-18 12:33N 44°03' E 009°50'0 0.0
2015-May-18 11:34N 44°03' E 009°50'7 3.4
2015-May-18 09:28N 44°07' E 009°42'7 7.8
2015-May-18 08:33N 44°03' E 009°50'3 2.9
2015-May-18 07:33N 44°06' E 009°50'3 3.1
2015-May-18 06:33N 44°03' E 009°51'0 0.0
2015-May-18 05:33N 44°03' E 009°51'0 0.0
2015-May-18 04:33N 44°03' E 009°51'3 0.2
2015-May-17 16:33N 44°04' E 009°54'3 2.6
2015-May-17 15:33N 44°03' E 009°51'0 0.1
2015-May-17 14:34N 44°03' E 009°51'0 0.4
2015-May-17 13:33N 44°03' E 009°50'0 0.0
2015-May-17 12:33N 44°03' E 009°50'0 0.0
2015-May-17 11:33N 44°03' E 009°50'1 0.8
2015-May-17 10:33N 44°02' E 009°51'1 0.8
2015-May-17 09:33N 44°03' E 009°50'0 0.0
2015-May-17 08:33N 44°03' E 009°50'3 3.4
2015-May-17 07:33N 44°04' E 009°54'3 3.0
2015-May-17 06:33N 44°03' E 009°51'0 0.0
2015-May-17 05:34N 44°03' E 009°51'0 0.0
2015-May-17 04:33N 44°03' E 009°51'0 0.0
2015-May-16 15:08N 44°03' E 009°51'0 0.8
2015-May-16 14:33N 44°03' E 009°50'11 2.7
2015-May-16 10:20N 44°09' E 009°37'6 7.8
2015-May-16 09:34N 44°06' E 009°44'8 7.9
2015-May-16 08:33N 44°04' E 009°55'4 3.5
2015-May-16 07:33N 44°06' E 009°50'3 0.2
2015-May-15 13:08N 44°03' E 009°51'0 0.7
2015-May-15 12:33N 44°03' E 009°50'0 0.0
2015-May-15 11:33N 44°03' E 009°50'0 0.0
2015-May-15 10:33N 44°03' E 009°50'0 0.0
2015-May-15 09:33N 44°03' E 009°50'10 9.0
2015-May-15 08:29N 44°09' E 009°39'5 5.6
2015-May-15 07:34N 44°05' E 009°44'4 0.2
2015-May-14 13:33N 44°03' E 009°49'9 6.8
2015-May-14 12:12N 44°09' E 009°39'0 0.0
2015-May-14 11:32N 44°09' E 009°39'0 0.0
2015-May-14 10:32N 44°09' E 009°39'4 4.2
2015-May-14 09:30N 44°06' E 009°44'8 8.3
2015-May-14 08:34N 44°04' E 009°55'3 3.1
2015-May-14 07:33N 44°03' E 009°51'0 0.0
2015-May-14 06:33N 44°03' E 009°51'0 0.0
2015-May-14 05:33N 44°03' E 009°51'  
Track history (hours):
 
Tides and Currents Weather Stations Pressure Air Temp Water Temp Dewpoint Dewpoint Depression Visibility Wind Speed Wind Dir Waves Ship Positions

Ufo 3

Last reported at 2015-May-23 17:26 UTC. Time now 2015-May-24 03:14 UTC.
Position N 44°03' E 009°51'.

Length 28 m.

Type: Passenger vessel. MMSI: 247031600.

Date/timePositionNaut miles runAvg speedWind from/ knotsBaromVisibWave heightAir tempDewpointWater temp
2015-May-23 17:26N 44°03' E 009°51'1110.9
2015-May-23 16:23N 44°09' E 009°37'6 5.9
2015-May-23 15:25N 44°06' E 009°44'5 6.1
2015-May-23 14:33N 44°03' E 009°50'2 2.4
2015-May-23 13:33N 44°04' E 009°47'7 3.4
2015-May-23 11:25N 44°09' E 009°39'4 4.6
2015-May-23 10:27N 44°06' E 009°44'8 8.7
2015-May-23 09:33N 44°04' E 009°55'3 3.4
2015-May-23 08:33N 44°03' E 009°50'0 0.0
2015-May-23 07:33N 44°03' E 009°50'0 0.4
2015-May-23 06:33N 44°03' E 009°51'0 0.0
2015-May-22 15:24N 44°03' E 009°51'10 7.7
2015-May-22 14:06N 44°09' E 009°39'0 0.0
2015-May-22 13:11N 44°09' E 009°39'4 4.8
2015-May-22 12:17N 44°06' E 009°44'4 4.7
2015-May-22 11:23N 44°09' E 009°39'0 0.1
2015-May-22 10:26N 44°09' E 009°39'4 4.3
2015-May-22 09:31N 44°06' E 009°43'0 0.5
2015-May-22 08:31N 44°06' E 009°44'0 0.1
2015-May-22 07:19N 44°06' E 009°44'6 0.1
2015-May-20 07:33N 44°03' E 009°51'0 0.0
2015-May-19 16:20N 44°03' E 009°51'10 5.2
2015-May-19 14:23N 44°09' E 009°39'3 2.2
2015-May-19 13:04N 44°07' E 009°42'2 2.9
2015-May-19 12:32N 44°06' E 009°44'5 5.4
2015-May-19 11:34N 44°03' E 009°50'0 0.0
2015-May-19 10:33N 44°03' E 009°50'10 4.5
2015-May-19 08:26N 44°08' E 009°39'4 4.7
2015-May-19 07:33N 44°05' E 009°43'6 5.7
2015-May-19 06:33N 44°03' E 009°50'0 0.4
2015-May-19 05:33N 44°03' E 009°51'10 0.7
2015-May-18 14:32N 44°09' E 009°39'4 4.4
2015-May-18 13:31N 44°06' E 009°44'5 5.5
2015-May-18 12:33N 44°03' E 009°50'0 0.0
2015-May-18 11:34N 44°03' E 009°50'7 3.4
2015-May-18 09:28N 44°07' E 009°42'7 7.8
2015-May-18 08:33N 44°03' E 009°50'3 2.9
2015-May-18 07:33N 44°06' E 009°50'3 3.1
2015-May-18 06:33N 44°03' E 009°51'0 0.0
2015-May-18 05:33N 44°03' E 009°51'0 0.0
2015-May-18 04:33N 44°03' E 009°51'3 0.2
2015-May-17 16:33N 44°04' E 009°54'3 2.6
2015-May-17 15:33N 44°03' E 009°51'0 0.1
2015-May-17 14:34N 44°03' E 009°51'0 0.4
2015-May-17 13:33N 44°03' E 009°50'0 0.0
2015-May-17 12:33N 44°03' E 009°50'0 0.0
2015-May-17 11:33N 44°03' E 009°50'1 0.8
2015-May-17 10:33N 44°02' E 009°51'1 0.8
2015-May-17 09:33N 44°03' E 009°50'0 0.0
2015-May-17 08:33N 44°03' E 009°50'3 3.4
2015-May-17 07:33N 44°04' E 009°54'3 3.0
2015-May-17 06:33N 44°03' E 009°51'0 0.0
2015-May-17 05:34N 44°03' E 009°51'0 0.0
2015-May-17 04:33N 44°03' E 009°51'0 0.0
2015-May-16 15:08N 44°03' E 009°51'0 0.8
2015-May-16 14:33N 44°03' E 009°50'11 2.7
2015-May-16 10:20N 44°09' E 009°37'6 7.8
2015-May-16 09:34N 44°06' E 009°44'8 7.9
2015-May-16 08:33N 44°04' E 009°55'4 3.5
2015-May-16 07:33N 44°06' E 009°50'3 0.2
2015-May-15 13:08N 44°03' E 009°51'0 0.7
2015-May-15 12:33N 44°03' E 009°50'0 0.0
2015-May-15 11:33N 44°03' E 009°50'0 0.0
2015-May-15 10:33N 44°03' E 009°50'0 0.0
2015-May-15 09:33N 44°03' E 009°50'10 9.0
2015-May-15 08:29N 44°09' E 009°39'5 5.6
2015-May-15 07:34N 44°05' E 009°44'4 0.2
2015-May-14 13:33N 44°03' E 009°49'9 6.8
2015-May-14 12:12N 44°09' E 009°39'0 0.0
2015-May-14 11:32N 44°09' E 009°39'0 0.0
2015-May-14 10:32N 44°09' E 009°39'4 4.2
2015-May-14 09:30N 44°06' E 009°44'8 8.3
2015-May-14 08:34N 44°04' E 009°55'3 3.1
2015-May-14 07:33N 44°03' E 009°51'0 0.0
2015-May-14 06:33N 44°03' E 009°51'0 0.0
2015-May-14 05:33N 44°03' E 009°51'  

Dump ship's entire track history